sensor_id;sensor_type;location;lat;lon;timestamp;P1;durP1;ratioP1;P2;durP2;ratioP2
21754;SDS011;11039;50.028;19.938;2023-09-30T00:00:43;12.48;;;11.18;;
21754;SDS011;11039;50.028;19.938;2023-09-30T00:03:09;12.30;;;10.93;;
21754;SDS011;11039;50.028;19.938;2023-09-30T00:05:36;14.07;;;11.48;;
21754;SDS011;11039;50.028;19.938;2023-09-30T00:08:02;14.27;;;11.10;;
21754;SDS011;11039;50.028;19.938;2023-09-30T00:10:28;12.20;;;10.63;;
21754;SDS011;11039;50.028;19.938;2023-09-30T00:12:55;12.88;;;10.65;;
21754;SDS011;11039;50.028;19.938;2023-09-30T00:15:21;12.82;;;10.98;;
21754;SDS011;11039;50.028;19.938;2023-09-30T00:17:47;12.85;;;10.90;;
21754;SDS011;11039;50.028;19.938;2023-09-30T00:20:13;12.52;;;10.80;;
21754;SDS011;11039;50.028;19.938;2023-09-30T00:22:40;11.63;;;10.32;;
21754;SDS011;11039;50.028;19.938;2023-09-30T00:25:06;12.38;;;11.05;;
21754;SDS011;11039;50.028;19.938;2023-09-30T00:27:32;12.20;;;10.48;;
21754;SDS011;11039;50.028;19.938;2023-09-30T00:29:59;13.85;;;10.52;;
21754;SDS011;11039;50.028;19.938;2023-09-30T00:32:25;12.23;;;10.45;;
21754;SDS011;11039;50.028;19.938;2023-09-30T00:34:51;12.38;;;9.93;;
21754;SDS011;11039;50.028;19.938;2023-09-30T00:37:18;12.23;;;10.48;;
21754;SDS011;11039;50.028;19.938;2023-09-30T00:39:44;11.13;;;9.52;;
21754;SDS011;11039;50.028;19.938;2023-09-30T00:42:10;12.43;;;10.23;;
21754;SDS011;11039;50.028;19.938;2023-09-30T00:44:36;14.05;;;10.65;;
21754;SDS011;11039;50.028;19.938;2023-09-30T00:47:02;12.45;;;10.02;;
21754;SDS011;11039;50.028;19.938;2023-09-30T00:49:28;10.93;;;9.50;;
21754;SDS011;11039;50.028;19.938;2023-09-30T00:51:55;12.70;;;10.07;;
21754;SDS011;11039;50.028;19.938;2023-09-30T00:54:25;11.93;;;9.70;;
21754;SDS011;11039;50.028;19.938;2023-09-30T00:56:52;11.15;;;9.68;;
21754;SDS011;11039;50.028;19.938;2023-09-30T00:59:21;11.25;;;10.02;;
21754;SDS011;11039;50.028;19.938;2023-09-30T01:01:47;11.38;;;9.80;;
21754;SDS011;11039;50.028;19.938;2023-09-30T01:04:14;11.95;;;10.15;;
21754;SDS011;11039;50.028;19.938;2023-09-30T01:06:40;11.35;;;9.50;;
21754;SDS011;11039;50.028;19.938;2023-09-30T01:09:07;11.23;;;9.80;;
21754;SDS011;11039;50.028;19.938;2023-09-30T01:11:34;11.05;;;9.15;;
21754;SDS011;11039;50.028;19.938;2023-09-30T01:14:00;11.02;;;9.85;;
21754;SDS011;11039;50.028;19.938;2023-09-30T01:16:26;12.65;;;10.00;;
21754;SDS011;11039;50.028;19.938;2023-09-30T01:18:52;10.63;;;9.32;;
21754;SDS011;11039;50.028;19.938;2023-09-30T01:21:18;10.55;;;9.45;;
21754;SDS011;11039;50.028;19.938;2023-09-30T01:23:44;10.98;;;9.45;;
21754;SDS011;11039;50.028;19.938;2023-09-30T01:26:12;12.40;;;10.73;;
21754;SDS011;11039;50.028;19.938;2023-09-30T01:28:38;12.32;;;9.68;;
21754;SDS011;11039;50.028;19.938;2023-09-30T01:31:05;10.70;;;9.60;;
21754;SDS011;11039;50.028;19.938;2023-09-30T01:33:31;10.90;;;9.50;;
21754;SDS011;11039;50.028;19.938;2023-09-30T01:35:58;10.85;;;8.98;;
21754;SDS011;11039;50.028;19.938;2023-09-30T01:38:24;10.05;;;8.88;;
21754;SDS011;11039;50.028;19.938;2023-09-30T01:40:51;11.30;;;8.77;;
21754;SDS011;11039;50.028;19.938;2023-09-30T01:43:17;12.27;;;9.13;;
21754;SDS011;11039;50.028;19.938;2023-09-30T01:45:43;10.73;;;9.63;;
21754;SDS011;11039;50.028;19.938;2023-09-30T01:48:09;10.75;;;8.82;;
21754;SDS011;11039;50.028;19.938;2023-09-30T01:50:39;10.30;;;8.68;;
21754;SDS011;11039;50.028;19.938;2023-09-30T01:53:05;9.77;;;8.45;;
21754;SDS011;11039;50.028;19.938;2023-09-30T01:55:32;10.57;;;8.95;;
21754;SDS011;11039;50.028;19.938;2023-09-30T01:57:58;9.88;;;8.88;;
21754;SDS011;11039;50.028;19.938;2023-09-30T02:00:25;12.02;;;9.23;;
21754;SDS011;11039;50.028;19.938;2023-09-30T02:02:53;9.68;;;8.68;;
21754;SDS011;11039;50.028;19.938;2023-09-30T02:05:19;9.70;;;8.52;;
21754;SDS011;11039;50.028;19.938;2023-09-30T02:07:45;11.55;;;9.27;;
21754;SDS011;11039;50.028;19.938;2023-09-30T02:10:11;10.70;;;9.00;;
21754;SDS011;11039;50.028;19.938;2023-09-30T02:12:37;11.38;;;9.13;;
21754;SDS011;11039;50.028;19.938;2023-09-30T02:15:03;10.30;;;8.95;;
21754;SDS011;11039;50.028;19.938;2023-09-30T02:17:29;10.73;;;9.15;;
21754;SDS011;11039;50.028;19.938;2023-09-30T02:19:55;9.93;;;8.88;;
21754;SDS011;11039;50.028;19.938;2023-09-30T02:22:21;9.82;;;8.43;;
21754;SDS011;11039;50.028;19.938;2023-09-30T02:24:49;12.93;;;8.85;;
21754;SDS011;11039;50.028;19.938;2023-09-30T02:27:15;9.73;;;8.73;;
21754;SDS011;11039;50.028;19.938;2023-09-30T02:29:42;10.18;;;8.48;;
21754;SDS011;11039;50.028;19.938;2023-09-30T02:34:26;10.13;;;8.80;;
21754;SDS011;11039;50.028;19.938;2023-09-30T02:36:53;10.90;;;8.82;;
21754;SDS011;11039;50.028;19.938;2023-09-30T02:39:20;9.77;;;8.65;;
21754;SDS011;11039;50.028;19.938;2023-09-30T02:41:46;9.98;;;8.70;;
21754;SDS011;11039;50.028;19.938;2023-09-30T02:44:15;10.32;;;9.02;;
21754;SDS011;11039;50.028;19.938;2023-09-30T02:49:01;9.70;;;8.70;;
21754;SDS011;11039;50.028;19.938;2023-09-30T02:51:27;9.27;;;8.38;;
21754;SDS011;11039;50.028;19.938;2023-09-30T02:53:54;9.85;;;8.85;;
21754;SDS011;11039;50.028;19.938;2023-09-30T02:58:39;9.77;;;8.77;;
21754;SDS011;11039;50.028;19.938;2023-09-30T03:01:05;9.68;;;8.20;;
21754;SDS011;11039;50.028;19.938;2023-09-30T03:05:50;9.55;;;7.88;;
21754;SDS011;11039;50.028;19.938;2023-09-30T03:08:16;8.98;;;8.07;;
21754;SDS011;11039;50.028;19.938;2023-09-30T03:10:42;9.02;;;7.82;;
21754;SDS011;11039;50.028;19.938;2023-09-30T03:13:08;9.77;;;7.78;;
21754;SDS011;11039;50.028;19.938;2023-09-30T03:15:35;9.20;;;7.82;;
21754;SDS011;11039;50.028;19.938;2023-09-30T03:18:02;10.02;;;7.95;;
21754;SDS011;11039;50.028;19.938;2023-09-30T03:20:28;9.82;;;8.10;;
21754;SDS011;11039;50.028;19.938;2023-09-30T03:22:56;8.65;;;7.75;;
21754;SDS011;11039;50.028;19.938;2023-09-30T03:25:22;10.10;;;7.93;;
21754;SDS011;11039;50.028;19.938;2023-09-30T03:27:48;8.88;;;7.72;;
21754;SDS011;11039;50.028;19.938;2023-09-30T03:30:14;9.88;;;8.10;;
21754;SDS011;11039;50.028;19.938;2023-09-30T03:32:41;8.80;;;7.55;;
21754;SDS011;11039;50.028;19.938;2023-09-30T03:35:08;9.02;;;7.80;;
21754;SDS011;11039;50.028;19.938;2023-09-30T03:37:42;8.00;;;7.20;;
21754;SDS011;11039;50.028;19.938;2023-09-30T03:40:08;8.65;;;7.65;;
21754;SDS011;11039;50.028;19.938;2023-09-30T03:42:39;8.80;;;7.90;;
21754;SDS011;11039;50.028;19.938;2023-09-30T03:45:07;8.60;;;7.65;;
21754;SDS011;11039;50.028;19.938;2023-09-30T03:47:34;8.38;;;7.57;;
21754;SDS011;11039;50.028;19.938;2023-09-30T03:50:01;9.27;;;7.95;;
21754;SDS011;11039;50.028;19.938;2023-09-30T03:52:28;9.20;;;8.02;;
21754;SDS011;11039;50.028;19.938;2023-09-30T03:54:54;9.13;;;8.18;;
21754;SDS011;11039;50.028;19.938;2023-09-30T03:57:20;9.00;;;7.40;;
21754;SDS011;11039;50.028;19.938;2023-09-30T03:59:46;8.10;;;7.30;;
21754;SDS011;11039;50.028;19.938;2023-09-30T04:02:12;8.18;;;7.35;;
21754;SDS011;11039;50.028;19.938;2023-09-30T04:04:39;8.88;;;7.82;;
21754;SDS011;11039;50.028;19.938;2023-09-30T04:07:05;9.23;;;7.78;;
21754;SDS011;11039;50.028;19.938;2023-09-30T04:09:32;9.30;;;7.65;;
21754;SDS011;11039;50.028;19.938;2023-09-30T04:11:58;9.23;;;8.00;;
21754;SDS011;11039;50.028;19.938;2023-09-30T04:14:26;9.35;;;7.75;;
21754;SDS011;11039;50.028;19.938;2023-09-30T04:16:52;9.25;;;8.13;;
21754;SDS011;11039;50.028;19.938;2023-09-30T04:19:19;8.10;;;7.10;;
21754;SDS011;11039;50.028;19.938;2023-09-30T04:21:46;10.20;;;7.97;;
21754;SDS011;11039;50.028;19.938;2023-09-30T04:24:12;7.97;;;7.18;;
21754;SDS011;11039;50.028;19.938;2023-09-30T04:28:58;8.82;;;7.68;;
21754;SDS011;11039;50.028;19.938;2023-09-30T04:31:26;10.10;;;7.25;;
21754;SDS011;11039;50.028;19.938;2023-09-30T04:33:53;8.63;;;7.63;;
21754;SDS011;11039;50.028;19.938;2023-09-30T04:36:19;7.97;;;7.18;;
21754;SDS011;11039;50.028;19.938;2023-09-30T04:38:47;8.15;;;7.07;;
21754;SDS011;11039;50.028;19.938;2023-09-30T04:41:14;8.73;;;7.47;;
21754;SDS011;11039;50.028;19.938;2023-09-30T04:43:41;7.80;;;6.88;;
21754;SDS011;11039;50.028;19.938;2023-09-30T04:46:08;8.35;;;7.43;;
21754;SDS011;11039;50.028;19.938;2023-09-30T04:48:34;8.30;;;7.50;;
21754;SDS011;11039;50.028;19.938;2023-09-30T04:51:00;8.32;;;7.38;;
21754;SDS011;11039;50.028;19.938;2023-09-30T04:53:30;7.95;;;7.15;;
21754;SDS011;11039;50.028;19.938;2023-09-30T04:55:58;8.98;;;8.02;;
21754;SDS011;11039;50.028;19.938;2023-09-30T04:58:25;9.02;;;7.35;;
21754;SDS011;11039;50.028;19.938;2023-09-30T05:00:51;7.95;;;7.13;;
21754;SDS011;11039;50.028;19.938;2023-09-30T05:03:17;8.10;;;7.30;;
21754;SDS011;11039;50.028;19.938;2023-09-30T05:05:44;7.72;;;6.85;;
21754;SDS011;11039;50.028;19.938;2023-09-30T05:08:10;8.95;;;7.20;;
21754;SDS011;11039;50.028;19.938;2023-09-30T05:10:39;8.48;;;7.30;;
21754;SDS011;11039;50.028;19.938;2023-09-30T05:13:05;8.13;;;7.32;;
21754;SDS011;11039;50.028;19.938;2023-09-30T05:15:31;8.13;;;7.28;;
21754;SDS011;11039;50.028;19.938;2023-09-30T05:17:57;8.10;;;7.22;;
21754;SDS011;11039;50.028;19.938;2023-09-30T05:20:23;7.93;;;6.93;;
21754;SDS011;11039;50.028;19.938;2023-09-30T05:22:49;8.00;;;7.20;;
21754;SDS011;11039;50.028;19.938;2023-09-30T05:25:16;7.80;;;7.07;;
21754;SDS011;11039;50.028;19.938;2023-09-30T05:27:43;7.75;;;6.95;;
21754;SDS011;11039;50.028;19.938;2023-09-30T05:30:09;7.80;;;7.00;;
21754;SDS011;11039;50.028;19.938;2023-09-30T05:32:36;8.15;;;7.28;;
21754;SDS011;11039;50.028;19.938;2023-09-30T05:35:04;8.20;;;7.25;;
21754;SDS011;11039;50.028;19.938;2023-09-30T05:37:30;7.32;;;6.63;;
21754;SDS011;11039;50.028;19.938;2023-09-30T05:39:56;8.07;;;6.97;;
21754;SDS011;11039;50.028;19.938;2023-09-30T05:42:22;7.43;;;6.57;;
21754;SDS011;11039;50.028;19.938;2023-09-30T05:44:48;8.02;;;7.22;;
21754;SDS011;11039;50.028;19.938;2023-09-30T05:47:14;8.77;;;7.15;;
21754;SDS011;11039;50.028;19.938;2023-09-30T05:49:41;7.85;;;6.93;;
21754;SDS011;11039;50.028;19.938;2023-09-30T05:52:07;8.95;;;6.97;;
21754;SDS011;11039;50.028;19.938;2023-09-30T05:54:33;7.82;;;6.80;;
21754;SDS011;11039;50.028;19.938;2023-09-30T05:56:59;8.38;;;7.10;;
21754;SDS011;11039;50.028;19.938;2023-09-30T05:59:25;7.47;;;6.78;;
21754;SDS011;11039;50.028;19.938;2023-09-30T06:01:53;7.50;;;6.80;;
21754;SDS011;11039;50.028;19.938;2023-09-30T06:04:19;7.97;;;6.70;;
21754;SDS011;11039;50.028;19.938;2023-09-30T06:06:45;8.25;;;7.32;;
21754;SDS011;11039;50.028;19.938;2023-09-30T06:09:12;7.95;;;7.15;;
21754;SDS011;11039;50.028;19.938;2023-09-30T06:11:38;7.95;;;6.97;;
21754;SDS011;11039;50.028;19.938;2023-09-30T06:14:07;7.88;;;6.20;;
21754;SDS011;11039;50.028;19.938;2023-09-30T06:16:33;7.30;;;6.60;;
21754;SDS011;11039;50.028;19.938;2023-09-30T06:18:59;8.80;;;7.25;;
21754;SDS011;11039;50.028;19.938;2023-09-30T06:21:26;7.18;;;6.47;;
21754;SDS011;11039;50.028;19.938;2023-09-30T06:23:54;8.00;;;6.35;;
21754;SDS011;11039;50.028;19.938;2023-09-30T06:26:20;9.80;;;7.22;;
21754;SDS011;11039;50.028;19.938;2023-09-30T06:28:46;8.07;;;6.65;;
21754;SDS011;11039;50.028;19.938;2023-09-30T06:31:13;7.60;;;6.65;;
21754;SDS011;11039;50.028;19.938;2023-09-30T06:33:40;6.82;;;6.13;;
21754;SDS011;11039;50.028;19.938;2023-09-30T06:36:13;7.28;;;6.57;;
21754;SDS011;11039;50.028;19.938;2023-09-30T06:38:39;7.07;;;6.38;;
21754;SDS011;11039;50.028;19.938;2023-09-30T06:41:07;6.72;;;6.03;;
21754;SDS011;11039;50.028;19.938;2023-09-30T06:43:33;8.80;;;6.50;;
21754;SDS011;11039;50.028;19.938;2023-09-30T06:46:05;7.45;;;6.65;;
21754;SDS011;11039;50.028;19.938;2023-09-30T06:48:32;6.50;;;5.82;;
21754;SDS011;11039;50.028;19.938;2023-09-30T06:50:58;7.28;;;6.53;;
21754;SDS011;11039;50.028;19.938;2023-09-30T06:53:25;7.43;;;6.40;;
21754;SDS011;11039;50.028;19.938;2023-09-30T06:55:51;7.75;;;6.60;;
21754;SDS011;11039;50.028;19.938;2023-09-30T06:58:17;6.63;;;6.03;;
21754;SDS011;11039;50.028;19.938;2023-09-30T07:00:55;6.90;;;6.20;;
21754;SDS011;11039;50.028;19.938;2023-09-30T07:03:21;6.95;;;6.07;;
21754;SDS011;11039;50.028;19.938;2023-09-30T07:05:47;7.50;;;6.78;;
21754;SDS011;11039;50.028;19.938;2023-09-30T07:08:17;6.70;;;6.00;;
21754;SDS011;11039;50.028;19.938;2023-09-30T07:10:43;7.15;;;6.45;;
21754;SDS011;11039;50.028;19.938;2023-09-30T07:13:11;7.70;;;6.68;;
21754;SDS011;11039;50.028;19.938;2023-09-30T07:15:37;7.22;;;6.28;;
21754;SDS011;11039;50.028;19.938;2023-09-30T07:18:03;9.00;;;6.07;;
21754;SDS011;11039;50.028;19.938;2023-09-30T07:20:29;7.20;;;6.25;;
21754;SDS011;11039;50.028;19.938;2023-09-30T07:22:58;7.28;;;6.47;;
21754;SDS011;11039;50.028;19.938;2023-09-30T07:25:24;6.82;;;6.13;;
21754;SDS011;11039;50.028;19.938;2023-09-30T07:27:51;7.95;;;6.30;;
21754;SDS011;11039;50.028;19.938;2023-09-30T07:30:17;7.05;;;5.95;;
21754;SDS011;11039;50.028;19.938;2023-09-30T07:32:44;7.03;;;6.32;;
21754;SDS011;11039;50.028;19.938;2023-09-30T07:35:10;6.75;;;6.05;;
21754;SDS011;11039;50.028;19.938;2023-09-30T07:37:37;7.18;;;6.22;;
21754;SDS011;11039;50.028;19.938;2023-09-30T07:40:04;6.47;;;5.78;;
21754;SDS011;11039;50.028;19.938;2023-09-30T07:42:31;7.03;;;6.32;;
21754;SDS011;11039;50.028;19.938;2023-09-30T07:44:58;8.05;;;6.65;;
21754;SDS011;11039;50.028;19.938;2023-09-30T07:47:24;7.68;;;6.47;;
21754;SDS011;11039;50.028;19.938;2023-09-30T07:49:50;6.70;;;6.00;;
21754;SDS011;11039;50.028;19.938;2023-09-30T07:52:16;7.18;;;6.47;;
21754;SDS011;11039;50.028;19.938;2023-09-30T07:54:42;7.60;;;6.30;;
21754;SDS011;11039;50.028;19.938;2023-09-30T07:57:08;7.07;;;6.38;;
21754;SDS011;11039;50.028;19.938;2023-09-30T07:59:34;7.28;;;6.22;;
21754;SDS011;11039;50.028;19.938;2023-09-30T08:02:01;6.40;;;5.80;;
21754;SDS011;11039;50.028;19.938;2023-09-30T08:04:30;6.90;;;5.70;;
21754;SDS011;11039;50.028;19.938;2023-09-30T08:06:56;6.80;;;6.10;;
21754;SDS011;11039;50.028;19.938;2023-09-30T08:09:22;10.48;;;7.63;;
21754;SDS011;11039;50.028;19.938;2023-09-30T08:11:49;12.30;;;9.50;;
21754;SDS011;11039;50.028;19.938;2023-09-30T08:14:15;11.63;;;10.07;;
21754;SDS011;11039;50.028;19.938;2023-09-30T08:16:41;13.10;;;10.18;;
21754;SDS011;11039;50.028;19.938;2023-09-30T08:19:08;11.73;;;9.52;;
21754;SDS011;11039;50.028;19.938;2023-09-30T08:21:34;11.07;;;9.85;;
21754;SDS011;11039;50.028;19.938;2023-09-30T08:24:01;13.85;;;9.95;;
21754;SDS011;11039;50.028;19.938;2023-09-30T08:26:27;15.13;;;10.25;;
21754;SDS011;11039;50.028;19.938;2023-09-30T08:28:53;13.32;;;9.90;;
21754;SDS011;11039;50.028;19.938;2023-09-30T08:31:19;13.23;;;10.73;;
21754;SDS011;11039;50.028;19.938;2023-09-30T08:33:46;14.07;;;10.88;;
21754;SDS011;11039;50.028;19.938;2023-09-30T08:36:12;13.02;;;10.10;;
21754;SDS011;11039;50.028;19.938;2023-09-30T08:38:39;13.73;;;10.70;;
21754;SDS011;11039;50.028;19.938;2023-09-30T08:41:05;12.73;;;10.25;;
21754;SDS011;11039;50.028;19.938;2023-09-30T08:43:36;11.82;;;10.00;;
21754;SDS011;11039;50.028;19.938;2023-09-30T08:46:04;13.90;;;10.82;;
21754;SDS011;11039;50.028;19.938;2023-09-30T08:48:31;13.45;;;10.98;;
21754;SDS011;11039;50.028;19.938;2023-09-30T08:50:58;12.95;;;10.57;;
21754;SDS011;11039;50.028;19.938;2023-09-30T08:53:25;14.77;;;10.27;;
21754;SDS011;11039;50.028;19.938;2023-09-30T08:55:54;13.02;;;9.60;;
21754;SDS011;11039;50.028;19.938;2023-09-30T08:58:24;13.40;;;9.50;;
21754;SDS011;11039;50.028;19.938;2023-09-30T09:00:50;13.02;;;9.02;;
21754;SDS011;11039;50.028;19.938;2023-09-30T09:03:18;11.13;;;9.45;;
21754;SDS011;11039;50.028;19.938;2023-09-30T09:05:44;14.40;;;9.88;;
21754;SDS011;11039;50.028;19.938;2023-09-30T09:08:11;10.52;;;9.00;;
21754;SDS011;11039;50.028;19.938;2023-09-30T09:10:46;10.82;;;9.43;;
21754;SDS011;11039;50.028;19.938;2023-09-30T09:13:19;11.70;;;9.30;;
21754;SDS011;11039;50.028;19.938;2023-09-30T09:15:45;11.98;;;8.93;;
21754;SDS011;11039;50.028;19.938;2023-09-30T09:18:11;12.00;;;9.63;;
21754;SDS011;11039;50.028;19.938;2023-09-30T09:20:39;12.05;;;9.93;;
21754;SDS011;11039;50.028;19.938;2023-09-30T09:23:06;12.73;;;9.73;;
21754;SDS011;11039;50.028;19.938;2023-09-30T09:25:37;10.70;;;9.60;;
21754;SDS011;11039;50.028;19.938;2023-09-30T09:28:04;12.48;;;9.55;;
21754;SDS011;11039;50.028;19.938;2023-09-30T09:30:30;11.10;;;8.85;;
21754;SDS011;11039;50.028;19.938;2023-09-30T09:35:22;10.18;;;9.13;;
21754;SDS011;11039;50.028;19.938;2023-09-30T09:38:00;11.15;;;9.07;;
21754;SDS011;11039;50.028;19.938;2023-09-30T09:40:28;12.70;;;9.07;;
21754;SDS011;11039;50.028;19.938;2023-09-30T09:42:54;10.30;;;9.00;;
21754;SDS011;11039;50.028;19.938;2023-09-30T09:45:21;11.02;;;8.80;;
21754;SDS011;11039;50.028;19.938;2023-09-30T09:47:48;10.60;;;8.70;;
21754;SDS011;11039;50.028;19.938;2023-09-30T09:52:33;11.18;;;9.18;;
21754;SDS011;11039;50.028;19.938;2023-09-30T09:55:00;11.35;;;9.02;;
21754;SDS011;11039;50.028;19.938;2023-09-30T09:57:26;9.25;;;8.32;;
21754;SDS011;11039;50.028;19.938;2023-09-30T09:59:53;11.15;;;8.80;;
21754;SDS011;11039;50.028;19.938;2023-09-30T10:02:20;10.60;;;8.85;;
21754;SDS011;11039;50.028;19.938;2023-09-30T10:04:47;10.70;;;8.77;;
21754;SDS011;11039;50.028;19.938;2023-09-30T10:07:25;12.02;;;9.32;;
21754;SDS011;11039;50.028;19.938;2023-09-30T10:09:51;11.60;;;8.38;;
21754;SDS011;11039;50.028;19.938;2023-09-30T10:12:18;9.30;;;8.32;;
21754;SDS011;11039;50.028;19.938;2023-09-30T10:14:46;12.38;;;8.95;;
21754;SDS011;11039;50.028;19.938;2023-09-30T10:17:13;10.30;;;9.00;;
21754;SDS011;11039;50.028;19.938;2023-09-30T10:20:03;12.82;;;8.95;;
21754;SDS011;11039;50.028;19.938;2023-09-30T10:22:25;10.20;;;8.93;;
21754;SDS011;11039;50.028;19.938;2023-09-30T10:24:57;11.45;;;8.60;;
21754;SDS011;11039;50.028;19.938;2023-09-30T10:35:11;9.90;;;8.65;;
21754;SDS011;11039;50.028;19.938;2023-09-30T10:37:37;12.30;;;9.52;;
21754;SDS011;11039;50.028;19.938;2023-09-30T10:40:03;12.13;;;8.52;;
21754;SDS011;11039;50.028;19.938;2023-09-30T10:42:43;11.35;;;8.85;;
21754;SDS011;11039;50.028;19.938;2023-09-30T10:45:41;12.70;;;8.77;;
21754;SDS011;11039;50.028;19.938;2023-09-30T10:47:55;11.15;;;8.85;;
21754;SDS011;11039;50.028;19.938;2023-09-30T10:53:08;11.38;;;9.35;;
21754;SDS011;11039;50.028;19.938;2023-09-30T10:55:35;11.07;;;8.90;;
21754;SDS011;11039;50.028;19.938;2023-09-30T10:58:02;12.30;;;9.40;;
21754;SDS011;11039;50.028;19.938;2023-09-30T11:00:28;13.02;;;8.60;;
21754;SDS011;11039;50.028;19.938;2023-09-30T11:02:55;10.13;;;8.88;;
21754;SDS011;11039;50.028;19.938;2023-09-30T11:05:22;9.55;;;8.35;;
21754;SDS011;11039;50.028;19.938;2023-09-30T11:07:48;9.55;;;8.55;;
21754;SDS011;11039;50.028;19.938;2023-09-30T11:10:18;12.65;;;8.68;;
21754;SDS011;11039;50.028;19.938;2023-09-30T11:12:54;11.05;;;8.80;;
21754;SDS011;11039;50.028;19.938;2023-09-30T11:15:21;9.65;;;8.40;;
21754;SDS011;11039;50.028;19.938;2023-09-30T11:17:48;9.30;;;8.20;;
21754;SDS011;11039;50.028;19.938;2023-09-30T11:20:15;9.20;;;8.25;;
21754;SDS011;11039;50.028;19.938;2023-09-30T11:22:42;9.27;;;7.93;;
21754;SDS011;11039;50.028;19.938;2023-09-30T11:25:14;9.98;;;8.40;;
21754;SDS011;11039;50.028;19.938;2023-09-30T11:27:41;10.05;;;8.57;;
21754;SDS011;11039;50.028;19.938;2023-09-30T11:30:07;9.68;;;7.78;;
21754;SDS011;11039;50.028;19.938;2023-09-30T11:32:33;9.35;;;7.72;;
21754;SDS011;11039;50.028;19.938;2023-09-30T11:34:59;8.38;;;7.30;;
21754;SDS011;11039;50.028;19.938;2023-09-30T11:37:32;10.50;;;7.20;;
21754;SDS011;11039;50.028;19.938;2023-09-30T11:40:11;9.98;;;7.07;;
21754;SDS011;11039;50.028;19.938;2023-09-30T11:42:39;8.48;;;7.35;;
21754;SDS011;11039;50.028;19.938;2023-09-30T11:45:26;8.63;;;7.28;;
21754;SDS011;11039;50.028;19.938;2023-09-30T11:47:52;8.20;;;6.63;;
21754;SDS011;11039;50.028;19.938;2023-09-30T11:50:18;8.50;;;6.55;;
21754;SDS011;11039;50.028;19.938;2023-09-30T11:52:44;7.50;;;6.75;;
21754;SDS011;11039;50.028;19.938;2023-09-30T11:55:13;6.88;;;6.18;;
21754;SDS011;11039;50.028;19.938;2023-09-30T11:57:41;7.93;;;6.60;;
21754;SDS011;11039;50.028;19.938;2023-09-30T12:00:07;6.50;;;5.85;;
21754;SDS011;11039;50.028;19.938;2023-09-30T12:02:38;6.88;;;6.18;;
21754;SDS011;11039;50.028;19.938;2023-09-30T12:05:05;8.13;;;5.90;;
21754;SDS011;11039;50.028;19.938;2023-09-30T12:07:36;6.93;;;5.80;;
21754;SDS011;11039;50.028;19.938;2023-09-30T12:10:03;6.22;;;5.53;;
21754;SDS011;11039;50.028;19.938;2023-09-30T12:12:29;6.43;;;5.57;;
21754;SDS011;11039;50.028;19.938;2023-09-30T12:14:55;6.03;;;5.20;;
21754;SDS011;11039;50.028;19.938;2023-09-30T12:17:21;7.15;;;5.40;;
21754;SDS011;11039;50.028;19.938;2023-09-30T12:19:47;9.02;;;5.78;;
21754;SDS011;11039;50.028;19.938;2023-09-30T12:22:13;6.10;;;5.50;;
21754;SDS011;11039;50.028;19.938;2023-09-30T12:24:39;6.80;;;5.80;;
21754;SDS011;11039;50.028;19.938;2023-09-30T12:27:05;5.88;;;5.03;;
21754;SDS011;11039;50.028;19.938;2023-09-30T12:29:31;5.90;;;5.30;;
21754;SDS011;11039;50.028;19.938;2023-09-30T12:31:57;5.38;;;4.80;;
21754;SDS011;11039;50.028;19.938;2023-09-30T12:34:23;7.55;;;5.32;;
21754;SDS011;11039;50.028;19.938;2023-09-30T12:36:51;5.78;;;5.20;;
21754;SDS011;11039;50.028;19.938;2023-09-30T12:39:17;5.60;;;4.80;;
21754;SDS011;11039;50.028;19.938;2023-09-30T12:41:48;5.38;;;4.88;;
21754;SDS011;11039;50.028;19.938;2023-09-30T12:44:15;5.53;;;4.95;;
21754;SDS011;11039;50.028;19.938;2023-09-30T12:46:42;5.25;;;4.70;;
21754;SDS011;11039;50.028;19.938;2023-09-30T12:49:08;5.65;;;4.55;;
21754;SDS011;11039;50.028;19.938;2023-09-30T12:51:35;5.40;;;4.88;;
21754;SDS011;11039;50.028;19.938;2023-09-30T12:54:02;5.07;;;4.45;;
21754;SDS011;11039;50.028;19.938;2023-09-30T12:56:28;5.97;;;5.18;;
21754;SDS011;11039;50.028;19.938;2023-09-30T12:58:58;5.88;;;4.53;;
21754;SDS011;11039;50.028;19.938;2023-09-30T13:01:24;5.07;;;4.57;;
21754;SDS011;11039;50.028;19.938;2023-09-30T13:03:50;6.57;;;4.82;;
21754;SDS011;11039;50.028;19.938;2023-09-30T13:06:16;5.30;;;4.47;;
21754;SDS011;11039;50.028;19.938;2023-09-30T13:08:43;5.93;;;4.93;;
21754;SDS011;11039;50.028;19.938;2023-09-30T13:11:09;5.40;;;4.90;;
21754;SDS011;11039;50.028;19.938;2023-09-30T13:13:36;5.20;;;4.70;;
21754;SDS011;11039;50.028;19.938;2023-09-30T13:16:03;5.25;;;4.40;;
21754;SDS011;11039;50.028;19.938;2023-09-30T13:18:36;5.10;;;4.60;;
21754;SDS011;11039;50.028;19.938;2023-09-30T13:21:02;5.50;;;4.85;;
21754;SDS011;11039;50.028;19.938;2023-09-30T13:23:30;5.18;;;4.60;;
21754;SDS011;11039;50.028;19.938;2023-09-30T13:25:56;5.50;;;4.70;;
21754;SDS011;11039;50.028;19.938;2023-09-30T13:28:22;5.40;;;4.90;;
21754;SDS011;11039;50.028;19.938;2023-09-30T13:30:49;5.72;;;4.93;;
21754;SDS011;11039;50.028;19.938;2023-09-30T13:33:15;6.28;;;4.70;;
21754;SDS011;11039;50.028;19.938;2023-09-30T13:35:41;9.07;;;5.57;;
21754;SDS011;11039;50.028;19.938;2023-09-30T13:38:07;5.55;;;4.90;;
21754;SDS011;11039;50.028;19.938;2023-09-30T13:40:33;7.95;;;5.45;;
21754;SDS011;11039;50.028;19.938;2023-09-30T13:42:59;9.00;;;6.20;;
21754;SDS011;11039;50.028;19.938;2023-09-30T13:45:25;6.45;;;5.82;;
21754;SDS011;11039;50.028;19.938;2023-09-30T13:47:53;7.75;;;5.72;;
21754;SDS011;11039;50.028;19.938;2023-09-30T13:50:19;7.82;;;6.03;;
21754;SDS011;11039;50.028;19.938;2023-09-30T13:52:45;12.18;;;6.45;;
21754;SDS011;11039;50.028;19.938;2023-09-30T13:55:11;9.35;;;5.93;;
21754;SDS011;11039;50.028;19.938;2023-09-30T13:57:43;7.63;;;5.60;;
21754;SDS011;11039;50.028;19.938;2023-09-30T14:00:10;6.82;;;5.43;;
21754;SDS011;11039;50.028;19.938;2023-09-30T14:02:36;6.65;;;5.45;;
21754;SDS011;11039;50.028;19.938;2023-09-30T14:05:03;9.23;;;5.93;;
21754;SDS011;11039;50.028;19.938;2023-09-30T14:07:30;5.90;;;5.07;;
21754;SDS011;11039;50.028;19.938;2023-09-30T14:09:56;6.70;;;4.95;;
21754;SDS011;11039;50.028;19.938;2023-09-30T14:12:22;6.63;;;4.40;;
21754;SDS011;11039;50.028;19.938;2023-09-30T14:14:48;6.38;;;4.68;;
21754;SDS011;11039;50.028;19.938;2023-09-30T14:17:16;11.07;;;4.60;;
21754;SDS011;11039;50.028;19.938;2023-09-30T14:19:42;5.13;;;3.95;;
21754;SDS011;11039;50.028;19.938;2023-09-30T14:22:08;5.47;;;4.28;;
21754;SDS011;11039;50.028;19.938;2023-09-30T14:24:35;5.38;;;4.00;;
21754;SDS011;11039;50.028;19.938;2023-09-30T14:27:02;5.97;;;4.20;;
21754;SDS011;11039;50.028;19.938;2023-09-30T14:29:28;5.13;;;4.43;;
21754;SDS011;11039;50.028;19.938;2023-09-30T14:31:54;5.50;;;4.07;;
21754;SDS011;11039;50.028;19.938;2023-09-30T14:34:21;6.53;;;3.92;;
21754;SDS011;11039;50.028;19.938;2023-09-30T14:36:47;6.30;;;4.00;;
21754;SDS011;11039;50.028;19.938;2023-09-30T14:39:14;5.50;;;4.13;;
21754;SDS011;11039;50.028;19.938;2023-09-30T14:41:43;6.72;;;4.22;;
21754;SDS011;11039;50.028;19.938;2023-09-30T14:44:09;5.68;;;3.95;;
21754;SDS011;11039;50.028;19.938;2023-09-30T14:46:37;6.03;;;4.30;;
21754;SDS011;11039;50.028;19.938;2023-09-30T14:49:03;5.32;;;3.75;;
21754;SDS011;11039;50.028;19.938;2023-09-30T14:51:31;6.07;;;4.13;;
21754;SDS011;11039;50.028;19.938;2023-09-30T14:53:57;5.18;;;3.83;;